sensor_id;sensor_type;location;lat;lon;timestamp;P1;durP1;ratioP1;P2;durP2;ratioP2
7160;SDS011;3622;53.576;9.978;2024-01-11T00:01:10;28.17;;;11.77;;
7160;SDS011;3622;53.576;9.978;2024-01-11T00:03:36;31.50;;;12.47;;
7160;SDS011;3622;53.576;9.978;2024-01-11T00:06:02;28.90;;;12.73;;
7160;SDS011;3622;53.576;9.978;2024-01-11T00:08:29;26.33;;;12.60;;
7160;SDS011;3622;53.576;9.978;2024-01-11T00:10:55;28.50;;;11.17;;
7160;SDS011;3622;53.576;9.978;2024-01-11T00:13:21;34.03;;;13.43;;
7160;SDS011;3622;53.576;9.978;2024-01-11T00:15:47;24.90;;;10.67;;
7160;SDS011;3622;53.576;9.978;2024-01-11T00:18:13;26.87;;;12.10;;
7160;SDS011;3622;53.576;9.978;2024-01-11T00:20:38;27.47;;;11.73;;
7160;SDS011;3622;53.576;9.978;2024-01-11T00:23:04;33.37;;;12.60;;
7160;SDS011;3622;53.576;9.978;2024-01-11T00:25:30;27.83;;;11.80;;
7160;SDS011;3622;53.576;9.978;2024-01-11T00:27:56;29.00;;;11.60;;
7160;SDS011;3622;53.576;9.978;2024-01-11T00:30:22;24.20;;;11.60;;
7160;SDS011;3622;53.576;9.978;2024-01-11T00:32:48;30.50;;;12.07;;
7160;SDS011;3622;53.576;9.978;2024-01-11T00:35:14;25.57;;;12.07;;
7160;SDS011;3622;53.576;9.978;2024-01-11T00:37:40;29.00;;;12.13;;
7160;SDS011;3622;53.576;9.978;2024-01-11T00:40:06;27.87;;;11.40;;
7160;SDS011;3622;53.576;9.978;2024-01-11T00:42:32;29.73;;;12.10;;
7160;SDS011;3622;53.576;9.978;2024-01-11T00:44:59;26.77;;;11.60;;
7160;SDS011;3622;53.576;9.978;2024-01-11T00:47:26;28.73;;;12.03;;
7160;SDS011;3622;53.576;9.978;2024-01-11T00:49:52;26.87;;;10.53;;
7160;SDS011;3622;53.576;9.978;2024-01-11T00:52:18;21.63;;;9.87;;
7160;SDS011;3622;53.576;9.978;2024-01-11T00:54:44;24.33;;;10.60;;
7160;SDS011;3622;53.576;9.978;2024-01-11T00:57:10;29.70;;;12.37;;
7160;SDS011;3622;53.576;9.978;2024-01-11T00:59:36;32.03;;;11.77;;
7160;SDS011;3622;53.576;9.978;2024-01-11T01:02:02;24.93;;;11.53;;
7160;SDS011;3622;53.576;9.978;2024-01-11T01:04:28;28.83;;;12.10;;
7160;SDS011;3622;53.576;9.978;2024-01-11T01:06:54;22.90;;;10.40;;
7160;SDS011;3622;53.576;9.978;2024-01-11T01:09:20;26.50;;;11.60;;
7160;SDS011;3622;53.576;9.978;2024-01-11T01:11:46;28.23;;;12.00;;
7160;SDS011;3622;53.576;9.978;2024-01-11T01:14:12;27.60;;;11.80;;
7160;SDS011;3622;53.576;9.978;2024-01-11T01:16:38;26.37;;;11.53;;
7160;SDS011;3622;53.576;9.978;2024-01-11T01:19:04;20.87;;;9.97;;
7160;SDS011;3622;53.576;9.978;2024-01-11T01:21:30;24.47;;;11.30;;
7160;SDS011;3622;53.576;9.978;2024-01-11T01:23:56;23.47;;;10.10;;
7160;SDS011;3622;53.576;9.978;2024-01-11T01:26:22;25.97;;;10.30;;
7160;SDS011;3622;53.576;9.978;2024-01-11T01:28:48;21.83;;;10.60;;
7160;SDS011;3622;53.576;9.978;2024-01-11T01:31:13;25.07;;;11.00;;
7160;SDS011;3622;53.576;9.978;2024-01-11T01:33:40;26.30;;;10.97;;
7160;SDS011;3622;53.576;9.978;2024-01-11T01:36:09;24.47;;;9.70;;
7160;SDS011;3622;53.576;9.978;2024-01-11T01:38:36;25.70;;;11.20;;
7160;SDS011;3622;53.576;9.978;2024-01-11T01:41:02;25.37;;;10.77;;
7160;SDS011;3622;53.576;9.978;2024-01-11T01:43:28;25.93;;;10.70;;
7160;SDS011;3622;53.576;9.978;2024-01-11T01:45:54;25.20;;;10.30;;
7160;SDS011;3622;53.576;9.978;2024-01-11T01:48:20;23.43;;;10.10;;
7160;SDS011;3622;53.576;9.978;2024-01-11T01:50:46;25.37;;;10.73;;
7160;SDS011;3622;53.576;9.978;2024-01-11T01:53:16;27.80;;;11.77;;
7160;SDS011;3622;53.576;9.978;2024-01-11T01:55:43;30.33;;;12.10;;
7160;SDS011;3622;53.576;9.978;2024-01-11T01:58:09;24.60;;;10.00;;
7160;SDS011;3622;53.576;9.978;2024-01-11T02:00:35;24.63;;;10.50;;
7160;SDS011;3622;53.576;9.978;2024-01-11T02:03:01;30.27;;;10.80;;
7160;SDS011;3622;53.576;9.978;2024-01-11T02:05:27;30.83;;;11.30;;
7160;SDS011;3622;53.576;9.978;2024-01-11T02:07:53;25.60;;;10.70;;
7160;SDS011;3622;53.576;9.978;2024-01-11T02:10:19;23.83;;;10.23;;
7160;SDS011;3622;53.576;9.978;2024-01-11T02:12:45;25.27;;;11.53;;
7160;SDS011;3622;53.576;9.978;2024-01-11T02:15:11;31.40;;;12.03;;
7160;SDS011;3622;53.576;9.978;2024-01-11T02:17:39;28.70;;;12.13;;
7160;SDS011;3622;53.576;9.978;2024-01-11T02:20:05;30.17;;;12.53;;
7160;SDS011;3622;53.576;9.978;2024-01-11T02:22:34;33.67;;;12.63;;
7160;SDS011;3622;53.576;9.978;2024-01-11T02:25:00;29.80;;;11.80;;
7160;SDS011;3622;53.576;9.978;2024-01-11T02:27:27;24.20;;;11.40;;
7160;SDS011;3622;53.576;9.978;2024-01-11T02:29:53;27.27;;;12.13;;
7160;SDS011;3622;53.576;9.978;2024-01-11T02:32:19;32.77;;;13.57;;
7160;SDS011;3622;53.576;9.978;2024-01-11T02:34:45;30.70;;;13.17;;
7160;SDS011;3622;53.576;9.978;2024-01-11T02:37:12;34.90;;;13.73;;
7160;SDS011;3622;53.576;9.978;2024-01-11T02:39:38;36.00;;;14.13;;
7160;SDS011;3622;53.576;9.978;2024-01-11T02:42:04;28.10;;;12.73;;
7160;SDS011;3622;53.576;9.978;2024-01-11T02:44:30;32.00;;;13.30;;
7160;SDS011;3622;53.576;9.978;2024-01-11T02:46:56;33.27;;;13.60;;
7160;SDS011;3622;53.576;9.978;2024-01-11T02:49:22;33.60;;;11.83;;
7160;SDS011;3622;53.576;9.978;2024-01-11T02:51:48;36.40;;;14.40;;
7160;SDS011;3622;53.576;9.978;2024-01-11T02:54:14;37.60;;;14.50;;
7160;SDS011;3622;53.576;9.978;2024-01-11T02:56:40;35.47;;;13.90;;
7160;SDS011;3622;53.576;9.978;2024-01-11T02:59:07;37.73;;;13.93;;
7160;SDS011;3622;53.576;9.978;2024-01-11T03:01:33;40.27;;;13.50;;
7160;SDS011;3622;53.576;9.978;2024-01-11T03:03:59;37.27;;;15.30;;
7160;SDS011;3622;53.576;9.978;2024-01-11T03:06:24;36.57;;;14.63;;
7160;SDS011;3622;53.576;9.978;2024-01-11T03:08:50;40.70;;;15.57;;
7160;SDS011;3622;53.576;9.978;2024-01-11T03:11:16;40.80;;;14.40;;
7160;SDS011;3622;53.576;9.978;2024-01-11T03:13:42;38.30;;;14.63;;
7160;SDS011;3622;53.576;9.978;2024-01-11T03:16:08;38.07;;;14.47;;
7160;SDS011;3622;53.576;9.978;2024-01-11T03:18:34;39.90;;;14.27;;
7160;SDS011;3622;53.576;9.978;2024-01-11T03:21:00;43.57;;;15.00;;
7160;SDS011;3622;53.576;9.978;2024-01-11T03:23:26;34.80;;;13.50;;
7160;SDS011;3622;53.576;9.978;2024-01-11T03:25:52;37.13;;;14.23;;
7160;SDS011;3622;53.576;9.978;2024-01-11T03:28:18;35.13;;;14.13;;
7160;SDS011;3622;53.576;9.978;2024-01-11T03:30:44;34.23;;;13.63;;
7160;SDS011;3622;53.576;9.978;2024-01-11T03:33:10;34.10;;;13.40;;
7160;SDS011;3622;53.576;9.978;2024-01-11T03:35:36;38.13;;;14.63;;
7160;SDS011;3622;53.576;9.978;2024-01-11T03:38:05;39.40;;;15.67;;
7160;SDS011;3622;53.576;9.978;2024-01-11T03:40:31;37.43;;;14.67;;
7160;SDS011;3622;53.576;9.978;2024-01-11T03:42:57;39.03;;;15.20;;
7160;SDS011;3622;53.576;9.978;2024-01-11T03:45:23;46.17;;;17.00;;
7160;SDS011;3622;53.576;9.978;2024-01-11T03:47:49;39.53;;;15.40;;
7160;SDS011;3622;53.576;9.978;2024-01-11T03:50:15;44.93;;;15.97;;
7160;SDS011;3622;53.576;9.978;2024-01-11T03:52:41;39.40;;;14.97;;
7160;SDS011;3622;53.576;9.978;2024-01-11T03:55:07;31.90;;;13.27;;
7160;SDS011;3622;53.576;9.978;2024-01-11T03:57:33;44.80;;;16.10;;
7160;SDS011;3622;53.576;9.978;2024-01-11T03:59:59;37.90;;;14.30;;
7160;SDS011;3622;53.576;9.978;2024-01-11T04:02:26;45.90;;;16.30;;
7160;SDS011;3622;53.576;9.978;2024-01-11T04:04:51;43.30;;;16.27;;
7160;SDS011;3622;53.576;9.978;2024-01-11T04:07:18;40.53;;;15.00;;
7160;SDS011;3622;53.576;9.978;2024-01-11T04:09:44;46.53;;;14.97;;
7160;SDS011;3622;53.576;9.978;2024-01-11T04:12:10;42.57;;;16.70;;
7160;SDS011;3622;53.576;9.978;2024-01-11T04:14:39;43.40;;;16.77;;
7160;SDS011;3622;53.576;9.978;2024-01-11T04:17:06;46.57;;;16.27;;
7160;SDS011;3622;53.576;9.978;2024-01-11T04:19:32;71.40;;;20.63;;
7160;SDS011;3622;53.576;9.978;2024-01-11T04:21:57;58.93;;;19.67;;
7160;SDS011;3622;53.576;9.978;2024-01-11T04:24:23;50.77;;;19.03;;
7160;SDS011;3622;53.576;9.978;2024-01-11T04:26:50;67.30;;;22.70;;
7160;SDS011;3622;53.576;9.978;2024-01-11T04:29:15;63.80;;;22.87;;
7160;SDS011;3622;53.576;9.978;2024-01-11T04:31:43;61.47;;;21.37;;
7160;SDS011;3622;53.576;9.978;2024-01-11T04:34:08;58.33;;;20.87;;
7160;SDS011;3622;53.576;9.978;2024-01-11T04:36:37;69.67;;;21.53;;
7160;SDS011;3622;53.576;9.978;2024-01-11T04:39:03;63.80;;;20.83;;
7160;SDS011;3622;53.576;9.978;2024-01-11T04:41:31;59.43;;;21.13;;
7160;SDS011;3622;53.576;9.978;2024-01-11T04:43:57;62.80;;;22.13;;
7160;SDS011;3622;53.576;9.978;2024-01-11T04:46:23;62.20;;;21.13;;
7160;SDS011;3622;53.576;9.978;2024-01-11T04:48:49;71.27;;;23.40;;
7160;SDS011;3622;53.576;9.978;2024-01-11T04:51:16;65.73;;;23.93;;
7160;SDS011;3622;53.576;9.978;2024-01-11T04:53:42;69.10;;;23.57;;
7160;SDS011;3622;53.576;9.978;2024-01-11T04:56:09;72.23;;;24.00;;
7160;SDS011;3622;53.576;9.978;2024-01-11T04:58:35;67.43;;;22.50;;
7160;SDS011;3622;53.576;9.978;2024-01-11T05:01:03;73.27;;;23.93;;
7160;SDS011;3622;53.576;9.978;2024-01-11T05:03:29;68.67;;;24.50;;
7160;SDS011;3622;53.576;9.978;2024-01-11T05:05:56;73.37;;;24.60;;
7160;SDS011;3622;53.576;9.978;2024-01-11T05:08:22;57.00;;;21.50;;
7160;SDS011;3622;53.576;9.978;2024-01-11T05:10:49;60.20;;;22.40;;
7160;SDS011;3622;53.576;9.978;2024-01-11T05:13:15;68.43;;;24.23;;
7160;SDS011;3622;53.576;9.978;2024-01-11T05:15:41;64.10;;;21.17;;
7160;SDS011;3622;53.576;9.978;2024-01-11T05:18:07;62.80;;;22.27;;
7160;SDS011;3622;53.576;9.978;2024-01-11T05:20:33;56.63;;;21.27;;
7160;SDS011;3622;53.576;9.978;2024-01-11T05:22:59;56.03;;;20.30;;
7160;SDS011;3622;53.576;9.978;2024-01-11T05:25:25;47.73;;;18.43;;
7160;SDS011;3622;53.576;9.978;2024-01-11T05:27:51;57.63;;;19.70;;
7160;SDS011;3622;53.576;9.978;2024-01-11T05:30:17;46.83;;;16.93;;
7160;SDS011;3622;53.576;9.978;2024-01-11T05:32:43;51.00;;;18.00;;
7160;SDS011;3622;53.576;9.978;2024-01-11T05:35:09;51.53;;;18.37;;
7160;SDS011;3622;53.576;9.978;2024-01-11T05:37:36;44.70;;;16.97;;
7160;SDS011;3622;53.576;9.978;2024-01-11T05:40:02;45.60;;;17.93;;
7160;SDS011;3622;53.576;9.978;2024-01-11T05:42:28;43.33;;;17.13;;
7160;SDS011;3622;53.576;9.978;2024-01-11T05:44:54;42.93;;;16.60;;
7160;SDS011;3622;53.576;9.978;2024-01-11T05:47:20;41.70;;;15.63;;
7160;SDS011;3622;53.576;9.978;2024-01-11T05:49:46;32.53;;;14.37;;
7160;SDS011;3622;53.576;9.978;2024-01-11T05:52:13;38.47;;;15.40;;
7160;SDS011;3622;53.576;9.978;2024-01-11T05:54:38;36.43;;;13.70;;
7160;SDS011;3622;53.576;9.978;2024-01-11T05:57:04;36.53;;;13.83;;
7160;SDS011;3622;53.576;9.978;2024-01-11T05:59:32;35.20;;;12.97;;
7160;SDS011;3622;53.576;9.978;2024-01-11T06:01:58;34.50;;;14.30;;
7160;SDS011;3622;53.576;9.978;2024-01-11T06:04:26;37.20;;;14.27;;
7160;SDS011;3622;53.576;9.978;2024-01-11T06:06:52;33.33;;;13.10;;
7160;SDS011;3622;53.576;9.978;2024-01-11T06:09:18;31.10;;;12.13;;
7160;SDS011;3622;53.576;9.978;2024-01-11T06:11:44;27.87;;;11.90;;
7160;SDS011;3622;53.576;9.978;2024-01-11T06:14:10;30.40;;;11.47;;
7160;SDS011;3622;53.576;9.978;2024-01-11T06:16:36;27.30;;;11.27;;
7160;SDS011;3622;53.576;9.978;2024-01-11T06:19:02;26.23;;;10.43;;
7160;SDS011;3622;53.576;9.978;2024-01-11T06:21:28;27.27;;;10.47;;
7160;SDS011;3622;53.576;9.978;2024-01-11T06:23:54;22.07;;;8.73;;
7160;SDS011;3622;53.576;9.978;2024-01-11T06:26:20;19.50;;;8.70;;
7160;SDS011;3622;53.576;9.978;2024-01-11T06:28:46;23.90;;;9.20;;
7160;SDS011;3622;53.576;9.978;2024-01-11T06:31:12;24.20;;;8.80;;
7160;SDS011;3622;53.576;9.978;2024-01-11T06:33:38;26.90;;;10.03;;
7160;SDS011;3622;53.576;9.978;2024-01-11T06:36:06;21.60;;;8.90;;
7160;SDS011;3622;53.576;9.978;2024-01-11T06:38:33;21.30;;;8.20;;
7160;SDS011;3622;53.576;9.978;2024-01-11T06:40:59;26.87;;;9.60;;
7160;SDS011;3622;53.576;9.978;2024-01-11T06:43:25;22.70;;;9.13;;
7160;SDS011;3622;53.576;9.978;2024-01-11T06:45:51;24.37;;;9.40;;
7160;SDS011;3622;53.576;9.978;2024-01-11T06:48:18;20.60;;;8.63;;
7160;SDS011;3622;53.576;9.978;2024-01-11T06:50:44;25.33;;;8.33;;
7160;SDS011;3622;53.576;9.978;2024-01-11T06:53:09;29.00;;;9.70;;
7160;SDS011;3622;53.576;9.978;2024-01-11T06:55:35;26.27;;;10.47;;
7160;SDS011;3622;53.576;9.978;2024-01-11T06:58:01;26.17;;;10.07;;
7160;SDS011;3622;53.576;9.978;2024-01-11T07:00:27;30.43;;;10.10;;
7160;SDS011;3622;53.576;9.978;2024-01-11T07:02:54;33.97;;;10.73;;
7160;SDS011;3622;53.576;9.978;2024-01-11T07:05:20;27.13;;;9.90;;
7160;SDS011;3622;53.576;9.978;2024-01-11T07:07:46;34.30;;;10.10;;
7160;SDS011;3622;53.576;9.978;2024-01-11T07:10:12;29.03;;;10.30;;
7160;SDS011;3622;53.576;9.978;2024-01-11T07:12:38;28.27;;;9.47;;
7160;SDS011;3622;53.576;9.978;2024-01-11T07:15:06;28.20;;;9.60;;
7160;SDS011;3622;53.576;9.978;2024-01-11T07:17:33;26.87;;;9.90;;
7160;SDS011;3622;53.576;9.978;2024-01-11T07:19:59;32.07;;;10.10;;
7160;SDS011;3622;53.576;9.978;2024-01-11T07:22:25;30.27;;;9.87;;
7160;SDS011;3622;53.576;9.978;2024-01-11T07:24:51;27.87;;;10.60;;
7160;SDS011;3622;53.576;9.978;2024-01-11T07:27:17;29.73;;;9.00;;
7160;SDS011;3622;53.576;9.978;2024-01-11T07:29:43;32.00;;;10.40;;
7160;SDS011;3622;53.576;9.978;2024-01-11T07:32:09;26.87;;;9.17;;
7160;SDS011;3622;53.576;9.978;2024-01-11T07:34:35;27.90;;;9.40;;
7160;SDS011;3622;53.576;9.978;2024-01-11T07:37:01;29.93;;;7.57;;
7160;SDS011;3622;53.576;9.978;2024-01-11T07:39:27;28.87;;;9.30;;
7160;SDS011;3622;53.576;9.978;2024-01-11T07:41:55;25.63;;;9.63;;
7160;SDS011;3622;53.576;9.978;2024-01-11T07:44:21;29.73;;;9.27;;
7160;SDS011;3622;53.576;9.978;2024-01-11T07:46:47;23.50;;;8.53;;
7160;SDS011;3622;53.576;9.978;2024-01-11T07:49:13;30.30;;;9.30;;
7160;SDS011;3622;53.576;9.978;2024-01-11T07:51:40;28.43;;;8.37;;
7160;SDS011;3622;53.576;9.978;2024-01-11T07:54:06;24.60;;;8.37;;
7160;SDS011;3622;53.576;9.978;2024-01-11T07:56:32;24.67;;;8.60;;
7160;SDS011;3622;53.576;9.978;2024-01-11T07:58:58;36.97;;;9.87;;
7160;SDS011;3622;53.576;9.978;2024-01-11T08:01:24;26.37;;;8.60;;
7160;SDS011;3622;53.576;9.978;2024-01-11T08:03:50;19.83;;;8.67;;
7160;SDS011;3622;53.576;9.978;2024-01-11T08:06:17;26.47;;;8.27;;
7160;SDS011;3622;53.576;9.978;2024-01-11T08:08:43;24.97;;;7.80;;
7160;SDS011;3622;53.576;9.978;2024-01-11T08:11:09;27.03;;;8.50;;
7160;SDS011;3622;53.576;9.978;2024-01-11T08:13:35;23.40;;;6.90;;
7160;SDS011;3622;53.576;9.978;2024-01-11T08:16:02;16.87;;;6.63;;
7160;SDS011;3622;53.576;9.978;2024-01-11T08:18:30;17.00;;;7.17;;
7160;SDS011;3622;53.576;9.978;2024-01-11T08:20:56;18.70;;;6.60;;
7160;SDS011;3622;53.576;9.978;2024-01-11T08:23:22;22.07;;;7.17;;
7160;SDS011;3622;53.576;9.978;2024-01-11T08:25:48;22.50;;;7.43;;
7160;SDS011;3622;53.576;9.978;2024-01-11T08:28:14;18.87;;;7.30;;
7160;SDS011;3622;53.576;9.978;2024-01-11T08:30:40;22.87;;;7.40;;
7160;SDS011;3622;53.576;9.978;2024-01-11T08:33:07;15.30;;;6.50;;
7160;SDS011;3622;53.576;9.978;2024-01-11T08:35:34;27.07;;;8.50;;
7160;SDS011;3622;53.576;9.978;2024-01-11T08:38:00;15.00;;;6.10;;
7160;SDS011;3622;53.576;9.978;2024-01-11T08:40:27;20.07;;;7.07;;
7160;SDS011;3622;53.576;9.978;2024-01-11T08:42:54;16.77;;;6.37;;
7160;SDS011;3622;53.576;9.978;2024-01-11T08:45:20;22.23;;;7.67;;
7160;SDS011;3622;53.576;9.978;2024-01-11T08:47:47;21.53;;;8.00;;
7160;SDS011;3622;53.576;9.978;2024-01-11T08:50:13;19.03;;;7.00;;
7160;SDS011;3622;53.576;9.978;2024-01-11T08:52:40;19.63;;;6.93;;
7160;SDS011;3622;53.576;9.978;2024-01-11T08:55:06;19.00;;;7.50;;
7160;SDS011;3622;53.576;9.978;2024-01-11T08:57:32;18.63;;;6.93;;
7160;SDS011;3622;53.576;9.978;2024-01-11T09:00:00;17.03;;;6.53;;
7160;SDS011;3622;53.576;9.978;2024-01-11T09:02:26;18.63;;;7.00;;
7160;SDS011;3622;53.576;9.978;2024-01-11T09:04:52;18.47;;;7.50;;
7160;SDS011;3622;53.576;9.978;2024-01-11T09:07:18;15.40;;;7.10;;
7160;SDS011;3622;53.576;9.978;2024-01-11T09:09:44;21.27;;;7.53;;
7160;SDS011;3622;53.576;9.978;2024-01-11T09:12:10;14.23;;;7.30;;
7160;SDS011;3622;53.576;9.978;2024-01-11T09:14:36;16.10;;;7.03;;
7160;SDS011;3622;53.576;9.978;2024-01-11T09:17:04;15.87;;;6.13;;
7160;SDS011;3622;53.576;9.978;2024-01-11T09:19:31;15.03;;;6.63;;
7160;SDS011;3622;53.576;9.978;2024-01-11T09:21:59;22.10;;;6.97;;
7160;SDS011;3622;53.576;9.978;2024-01-11T09:24:25;14.13;;;5.50;;
7160;SDS011;3622;53.576;9.978;2024-01-11T09:26:51;18.80;;;5.80;;
7160;SDS011;3622;53.576;9.978;2024-01-11T09:29:17;24.33;;;7.10;;
7160;SDS011;3622;53.576;9.978;2024-01-11T09:31:43;18.40;;;7.13;;
7160;SDS011;3622;53.576;9.978;2024-01-11T09:34:09;19.10;;;6.50;;
7160;SDS011;3622;53.576;9.978;2024-01-11T09:36:36;15.87;;;6.50;;
7160;SDS011;3622;53.576;9.978;2024-01-11T09:39:04;16.07;;;6.20;;
7160;SDS011;3622;53.576;9.978;2024-01-11T09:41:30;16.50;;;6.87;;
7160;SDS011;3622;53.576;9.978;2024-01-11T09:43:57;26.93;;;8.00;;
7160;SDS011;3622;53.576;9.978;2024-01-11T09:46:26;16.20;;;7.13;;
7160;SDS011;3622;53.576;9.978;2024-01-11T09:48:53;18.37;;;6.83;;
7160;SDS011;3622;53.576;9.978;2024-01-11T09:51:19;19.07;;;6.30;;
7160;SDS011;3622;53.576;9.978;2024-01-11T09:53:45;18.60;;;6.40;;
7160;SDS011;3622;53.576;9.978;2024-01-11T09:56:12;18.37;;;6.73;;
7160;SDS011;3622;53.576;9.978;2024-01-11T09:58:39;20.57;;;6.97;;
7160;SDS011;3622;53.576;9.978;2024-01-11T10:01:09;17.80;;;7.00;;
7160;SDS011;3622;53.576;9.978;2024-01-11T10:03:38;22.60;;;7.27;;
7160;SDS011;3622;53.576;9.978;2024-01-11T10:06:04;19.13;;;7.27;;
7160;SDS011;3622;53.576;9.978;2024-01-11T10:08:32;19.40;;;6.20;;
7160;SDS011;3622;53.576;9.978;2024-01-11T10:10:58;19.17;;;6.97;;
7160;SDS011;3622;53.576;9.978;2024-01-11T10:13:28;15.40;;;7.23;;
7160;SDS011;3622;53.576;9.978;2024-01-11T10:16:07;22.53;;;7.67;;
7160;SDS011;3622;53.576;9.978;2024-01-11T10:18:33;20.53;;;7.67;;
7160;SDS011;3622;53.576;9.978;2024-01-11T10:20:59;17.57;;;8.30;;
7160;SDS011;3622;53.576;9.978;2024-01-11T10:23:25;23.23;;;9.23;;
7160;SDS011;3622;53.576;9.978;2024-01-11T10:25:53;20.63;;;8.57;;
7160;SDS011;3622;53.576;9.978;2024-01-11T10:28:20;24.90;;;9.43;;
7160;SDS011;3622;53.576;9.978;2024-01-11T10:30:46;24.40;;;9.60;;
7160;SDS011;3622;53.576;9.978;2024-01-11T10:33:13;27.40;;;10.97;;
7160;SDS011;3622;53.576;9.978;2024-01-11T10:35:39;25.20;;;10.63;;
7160;SDS011;3622;53.576;9.978;2024-01-11T10:38:07;23.00;;;9.77;;
7160;SDS011;3622;53.576;9.978;2024-01-11T10:40:35;25.27;;;10.00;;
7160;SDS011;3622;53.576;9.978;2024-01-11T10:43:01;29.60;;;10.00;;
7160;SDS011;3622;53.576;9.978;2024-01-11T10:45:28;27.93;;;11.47;;
7160;SDS011;3622;53.576;9.978;2024-01-11T10:48:00;30.93;;;10.97;;
7160;SDS011;3622;53.576;9.978;2024-01-11T10:50:30;31.40;;;10.80;;
7160;SDS011;3622;53.576;9.978;2024-01-11T10:52:59;26.93;;;10.20;;
7160;SDS011;3622;53.576;9.978;2024-01-11T10:55:28;26.93;;;10.20;;
7160;SDS011;3622;53.576;9.978;2024-01-11T10:57:56;32.60;;;11.77;;
7160;SDS011;3622;53.576;9.978;2024-01-11T11:00:23;28.50;;;11.67;;
7160;SDS011;3622;53.576;9.978;2024-01-11T11:02:49;31.60;;;12.40;;
7160;SDS011;3622;53.576;9.978;2024-01-11T11:05:16;47.13;;;19.03;;
7160;SDS011;3622;53.576;9.978;2024-01-11T11:07:44;38.10;;;15.70;;
7160;SDS011;3622;53.576;9.978;2024-01-11T11:10:10;34.30;;;12.07;;
7160;SDS011;3622;53.576;9.978;2024-01-11T11:12:38;29.60;;;12.47;;
7160;SDS011;3622;53.576;9.978;2024-01-11T11:15:04;23.57;;;10.17;;
7160;SDS011;3622;53.576;9.978;2024-01-11T11:17:31;28.97;;;10.93;;
7160;SDS011;3622;53.576;9.978;2024-01-11T11:19:57;31.40;;;11.00;;
7160;SDS011;3622;53.576;9.978;2024-01-11T11:22:25;30.40;;;9.53;;
7160;SDS011;3622;53.576;9.978;2024-01-11T11:25:02;23.47;;;9.33;;
7160;SDS011;3622;53.576;9.978;2024-01-11T11:27:30;25.70;;;10.70;;
7160;SDS011;3622;53.576;9.978;2024-01-11T11:29:56;27.70;;;11.13;;
7160;SDS011;3622;53.576;9.978;2024-01-11T11:32:38;26.10;;;10.43;;
7160;SDS011;3622;53.576;9.978;2024-01-11T11:35:07;34.27;;;13.10;;
7160;SDS011;3622;53.576;9.978;2024-01-11T11:37:33;31.10;;;12.07;;
7160;SDS011;3622;53.576;9.978;2024-01-11T11:40:01;26.90;;;10.00;;
7160;SDS011;3622;53.576;9.978;2024-01-11T11:42:30;22.57;;;10.83;;
7160;SDS011;3622;53.576;9.978;2024-01-11T11:44:56;29.27;;;11.13;;
7160;SDS011;3622;53.576;9.978;2024-01-11T11:47:23;25.73;;;11.57;;
7160;SDS011;3622;53.576;9.978;2024-01-11T11:50:05;26.63;;;12.07;;
7160;SDS011;3622;53.576;9.978;2024-01-11T11:52:34;31.70;;;10.23;;
7160;SDS011;3622;53.576;9.978;2024-01-11T11:55:01;25.07;;;10.93;;
7160;SDS011;3622;53.576;9.978;2024-01-11T11:57:27;35.30;;;12.13;;
7160;SDS011;3622;53.576;9.978;2024-01-11T11:59:57;24.33;;;10.63;;
7160;SDS011;3622;53.576;9.978;2024-01-11T12:02:32;29.17;;;10.67;;
7160;SDS011;3622;53.576;9.978;2024-01-11T12:05:01;31.07;;;12.30;;
7160;SDS011;3622;53.576;9.978;2024-01-11T12:07:28;30.20;;;11.60;;
7160;SDS011;3622;53.576;9.978;2024-01-11T12:09:54;33.37;;;12.00;;
7160;SDS011;3622;53.576;9.978;2024-01-11T12:12:20;41.30;;;13.80;;
7160;SDS011;3622;53.576;9.978;2024-01-11T12:14:47;30.13;;;11.97;;
7160;SDS011;3622;53.576;9.978;2024-01-11T12:17:14;30.93;;;12.40;;
7160;SDS011;3622;53.576;9.978;2024-01-11T12:19:40;28.57;;;11.17;;
7160;SDS011;3622;53.576;9.978;2024-01-11T12:22:06;31.90;;;11.90;;
7160;SDS011;3622;53.576;9.978;2024-01-11T12:24:32;28.43;;;11.93;;
7160;SDS011;3622;53.576;9.978;2024-01-11T12:26:59;33.23;;;11.27;;
7160;SDS011;3622;53.576;9.978;2024-01-11T12:29:25;38.50;;;13.07;;
7160;SDS011;3622;53.576;9.978;2024-01-11T12:31:51;35.33;;;13.73;;
7160;SDS011;3622;53.576;9.978;2024-01-11T12:34:17;28.77;;;12.10;;
7160;SDS011;3622;53.576;9.978;2024-01-11T12:36:43;34.60;;;11.97;;
7160;SDS011;3622;53.576;9.978;2024-01-11T12:39:12;27.67;;;12.17;;
7160;SDS011;3622;53.576;9.978;2024-01-11T12:41:38;29.80;;;11.70;;
7160;SDS011;3622;53.576;9.978;2024-01-11T12:44:04;32.80;;;12.60;;
7160;SDS011;3622;53.576;9.978;2024-01-11T12:46:31;26.20;;;11.80;;
7160;SDS011;3622;53.576;9.978;2024-01-11T12:48:57;31.03;;;11.57;;
7160;SDS011;3622;53.576;9.978;2024-01-11T12:51:23;31.60;;;11.80;;
7160;SDS011;3622;53.576;9.978;2024-01-11T12:53:51;29.17;;;11.30;;
7160;SDS011;3622;53.576;9.978;2024-01-11T12:56:18;28.73;;;12.20;;
7160;SDS011;3622;53.576;9.978;2024-01-11T12:58:46;32.30;;;10.83;;
7160;SDS011;3622;53.576;9.978;2024-01-11T13:01:12;25.97;;;11.23;;
7160;SDS011;3622;53.576;9.978;2024-01-11T13:03:39;31.60;;;11.53;;
7160;SDS011;3622;53.576;9.978;2024-01-11T13:06:05;24.67;;;11.57;;
7160;SDS011;3622;53.576;9.978;2024-01-11T13:08:33;21.17;;;10.50;;
7160;SDS011;3622;53.576;9.978;2024-01-11T13:11:02;25.90;;;10.90;;
7160;SDS011;3622;53.576;9.978;2024-01-11T13:13:31;26.93;;;10.33;;
7160;SDS011;3622;53.576;9.978;2024-01-11T13:15:57;29.57;;;11.77;;
7160;SDS011;3622;53.576;9.978;2024-01-11T13:18:23;27.30;;;11.67;;
7160;SDS011;3622;53.576;9.978;2024-01-11T13:20:49;25.00;;;10.33;;
7160;SDS011;3622;53.576;9.978;2024-01-11T13:25:43;30.97;;;10.87;;
7160;SDS011;3622;53.576;9.978;2024-01-11T13:28:09;31.33;;;11.00;;
7160;SDS011;3622;53.576;9.978;2024-01-11T13:30:39;27.00;;;11.30;;
7160;SDS011;3622;53.576;9.978;2024-01-11T13:33:05;32.27;;;10.80;;
7160;SDS011;3622;53.576;9.978;2024-01-11T13:35:33;24.77;;;10.80;;
7160;SDS011;3622;53.576;9.978;2024-01-11T13:37:58;24.83;;;10.53;;
7160;SDS011;3622;53.576;9.978;2024-01-11T13:40:25;20.33;;;10.07;;
7160;SDS011;3622;53.576;9.978;2024-01-11T13:42:53;26.00;;;9.40;;
7160;SDS011;3622;53.576;9.978;2024-01-11T13:45:20;30.43;;;10.47;;
7160;SDS011;3622;53.576;9.978;2024-01-11T13:47:46;35.53;;;11.40;;
7160;SDS011;3622;53.576;9.978;2024-01-11T13:50:12;26.50;;;10.73;;
7160;SDS011;3622;53.576;9.978;2024-01-11T13:52:38;23.90;;;9.90;;
7160;SDS011;3622;53.576;9.978;2024-01-11T13:55:04;29.93;;;10.70;;
7160;SDS011;3622;53.576;9.978;2024-01-11T13:57:30;28.80;;;11.03;;
7160;SDS011;3622;53.576;9.978;2024-01-11T13:59:56;27.77;;;11.00;;
7160;SDS011;3622;53.576;9.978;2024-01-11T14:02:22;24.63;;;10.70;;
7160;SDS011;3622;53.576;9.978;2024-01-11T14:04:48;37.60;;;12.07;;
7160;SDS011;3622;53.576;9.978;2024-01-11T14:07:14;26.60;;;10.87;;
7160;SDS011;3622;53.576;9.978;2024-01-11T14:09:40;25.37;;;10.80;;
7160;SDS011;3622;53.576;9.978;2024-01-11T14:12:06;25.50;;;9.27;;
7160;SDS011;3622;53.576;9.978;2024-01-11T14:14:32;27.87;;;10.67;;
7160;SDS011;3622;53.576;9.978;2024-01-11T14:16:58;25.83;;;11.03;;
7160;SDS011;3622;53.576;9.978;2024-01-11T14:19:24;32.23;;;11.10;;
7160;SDS011;3622;53.576;9.978;2024-01-11T14:21:50;29.63;;;10.57;;
7160;SDS011;3622;53.576;9.978;2024-01-11T14:24:16;26.60;;;10.80;;
7160;SDS011;3622;53.576;9.978;2024-01-11T14:26:42;30.63;;;11.50;;
7160;SDS011;3622;53.576;9.978;2024-01-11T14:29:09;25.77;;;10.60;;
7160;SDS011;3622;53.576;9.978;2024-01-11T14:31:36;26.07;;;10.60;;
7160;SDS011;3622;53.576;9.978;2024-01-11T14:34:02;24.53;;;10.13;;
7160;SDS011;3622;53.576;9.978;2024-01-11T14:36:28;23.77;;;10.10;;
7160;SDS011;3622;53.576;9.978;2024-01-11T14:38:55;28.27;;;10.80;;
7160;SDS011;3622;53.576;9.978;2024-01-11T14:41:21;26.00;;;10.83;;
7160;SDS011;3622;53.576;9.978;2024-01-11T14:43:47;28.70;;;11.47;;
7160;SDS011;3622;53.576;9.978;2024-01-11T14:46:13;25.87;;;11.23;;
7160;SDS011;3622;53.576;9.978;2024-01-11T14:48:39;28.00;;;10.23;;